createdAt,value
2019-04-01T00:01:44.142Z,101109.36
2019-04-01T00:04:12.208Z,101108.41
2019-04-01T00:06:40.061Z,101110.34
2019-04-01T00:09:08.229Z,101103.81
2019-04-01T00:11:36.539Z,101097.02
2019-04-01T00:14:04.605Z,101104.62
2019-04-01T00:16:32.630Z,101106.35
2019-04-01T00:19:03.285Z,101104.09
2019-04-01T00:21:29.467Z,101103.84
2019-04-01T00:23:57.403Z,101101.72
2019-04-01T00:26:25.792Z,101103.91
2019-04-01T00:28:53.066Z,101100.53
2019-04-01T00:31:21.338Z,101108.10
2019-04-01T00:33:48.879Z,101106.67
2019-04-01T00:36:16.577Z,101107.91
2019-04-01T00:38:44.568Z,101105.13
2019-04-01T00:41:12.375Z,101108.95
2019-04-01T00:43:59.577Z,101107.97
2019-04-01T00:46:27.419Z,101101.59
2019-04-01T00:48:55.809Z,101102.06
2019-04-01T00:51:23.726Z,101095.45
2019-04-01T00:53:51.247Z,101104.56
2019-04-01T00:56:18.654Z,101102.11
2019-04-01T00:58:46.398Z,101100.69
2019-04-01T01:01:14.152Z,101100.78
2019-04-01T01:03:41.887Z,101098.66
2019-04-01T01:06:09.789Z,101097.03
2019-04-01T01:08:37.838Z,101098.66
2019-04-01T01:11:06.149Z,101104.48
2019-04-01T01:13:33.944Z,101098.98
2019-04-01T01:16:01.826Z,101094.31
2019-04-01T01:18:29.826Z,101089.01
2019-04-01T01:20:57.445Z,101097.59
2019-04-01T01:23:24.994Z,101087.73
2019-04-01T01:25:53.190Z,101094.04
2019-04-01T01:28:21.089Z,101093.44
2019-04-01T01:30:48.543Z,101088.41
2019-04-01T01:33:16.183Z,101088.36
2019-04-01T01:35:43.935Z,101086.69
2019-04-01T01:38:11.339Z,101084.41
2019-04-01T01:40:39.062Z,101083.61
2019-04-01T01:43:07.055Z,101091.27
2019-04-01T01:45:34.605Z,101083.58
2019-04-01T01:48:02.294Z,101081.70
2019-04-01T01:50:29.715Z,101076.83
2019-04-01T01:52:57.277Z,101079.22
2019-04-01T01:55:24.813Z,101081.48
2019-04-01T01:57:52.291Z,101073.92
2019-04-01T02:00:20.836Z,101074.40
2019-04-01T02:02:49.227Z,101078.95
2019-04-01T02:05:16.759Z,101071.21
2019-04-01T02:07:44.863Z,101071.99
2019-04-01T02:10:13.065Z,101072.31
2019-04-01T02:12:40.374Z,101069.60
2019-04-01T02:15:08.555Z,101066.30
2019-04-01T02:17:36.959Z,101052.30
2019-04-01T02:20:05.145Z,101057.52
2019-04-01T02:22:32.693Z,101052.41
2019-04-01T02:25:00.531Z,101054.94
2019-04-01T02:27:28.299Z,101050.34
2019-04-01T02:29:56.295Z,101049.20
2019-04-01T02:32:23.682Z,101050.19
2019-04-01T02:34:51.256Z,101051.27
2019-04-01T02:37:18.731Z,101051.81
2019-04-01T02:39:46.460Z,101055.02
2019-04-01T02:42:14.513Z,101052.47
2019-04-01T02:44:42.698Z,101053.73
2019-04-01T02:47:10.721Z,101054.70
2019-04-01T02:49:38.498Z,101049.91
2019-04-01T02:52:05.840Z,101053.17
2019-04-01T02:54:33.927Z,101055.95
2019-04-01T02:57:01.498Z,101063.29
2019-04-01T02:59:29.179Z,101060.97
2019-04-01T03:01:57.142Z,101063.39
2019-04-01T03:04:24.525Z,101063.43
2019-04-01T03:06:52.448Z,101066.72
2019-04-01T03:09:20.099Z,101065.40
2019-04-01T03:11:48.013Z,101068.50
2019-04-01T03:14:15.883Z,101063.56
2019-04-01T03:16:44.044Z,101063.75
2019-04-01T03:19:11.736Z,101062.59
2019-04-01T03:21:39.400Z,101059.92
2019-04-01T03:26:31.465Z,101062.10
2019-04-01T03:28:59.132Z,101069.20
2019-04-01T03:31:26.956Z,101068.20
2019-04-01T03:33:54.721Z,101064.48
2019-04-01T03:36:22.800Z,101062.68
2019-04-01T03:38:50.761Z,101062.10
2019-04-01T03:41:18.167Z,101063.36
2019-04-01T03:43:45.945Z,101064.06
2019-04-01T03:46:13.124Z,101067.42
2019-04-01T03:48:40.773Z,101065.28
2019-04-01T03:51:08.220Z,101065.28
2019-04-01T03:53:35.959Z,101064.06
2019-04-01T03:56:03.628Z,101067.99
2019-04-01T03:58:31.241Z,101068.83
2019-04-01T04:00:59.168Z,101068.05
2019-04-01T04:03:26.783Z,101067.50
2019-04-01T04:05:54.655Z,101070.75
2019-04-01T04:08:22.606Z,101067.78
2019-04-01T04:10:50.297Z,101070.23
2019-04-01T04:13:17.990Z,101075.41
2019-04-01T04:15:46.143Z,101065.91
2019-04-01T04:18:13.931Z,101071.41
2019-04-01T04:20:41.937Z,101071.41
2019-04-01T04:23:09.839Z,101064.17
2019-04-01T04:25:38.658Z,101075.19
2019-04-01T04:28:06.534Z,101070.80
2019-04-01T04:30:34.810Z,101074.02
2019-04-01T04:33:02.604Z,101067.00
2019-04-01T04:35:29.995Z,101073.83
2019-04-01T04:37:57.535Z,101070.15
2019-04-01T04:40:25.276Z,101070.17
2019-04-01T04:42:53.172Z,101070.50
2019-04-01T04:45:21.226Z,101074.88
2019-04-01T04:47:48.980Z,101075.59
2019-04-01T04:50:17.178Z,101074.28
2019-04-01T04:52:45.154Z,101077.02
2019-04-01T04:55:12.393Z,101069.59
2019-04-01T04:57:39.793Z,101073.30
2019-04-01T05:00:07.730Z,101070.43
2019-04-01T05:02:35.282Z,101074.06
2019-04-01T05:05:03.322Z,101075.54
2019-04-01T05:07:31.515Z,101070.13
2019-04-01T05:09:58.775Z,101074.20
2019-04-01T05:12:26.321Z,101077.61
2019-04-01T05:14:53.845Z,101078.13
2019-04-01T05:17:22.014Z,101077.08
2019-04-01T05:19:49.664Z,101081.60
2019-04-01T05:22:20.561Z,101074.63
2019-04-01T05:24:50.229Z,101076.12
2019-04-01T05:29:47.560Z,101079.83
2019-04-01T05:32:18.062Z,101083.52
2019-04-01T05:34:48.444Z,101078.46
2019-04-01T05:37:16.330Z,101088.37
2019-04-01T05:39:45.116Z,101090.38
2019-04-01T05:42:12.519Z,101092.55
2019-04-01T05:44:40.063Z,101091.66
2019-04-01T05:47:07.740Z,101089.79
2019-04-01T05:49:35.503Z,101096.67
2019-04-01T05:52:03.108Z,101094.37
2019-04-01T05:54:31.020Z,101093.83
2019-04-01T05:56:59.355Z,101097.61
2019-04-01T05:59:27.961Z,101098.27
2019-04-01T06:01:56.144Z,101090.73
2019-04-01T06:04:23.414Z,101096.05
2019-04-01T06:06:51.257Z,101093.15
2019-04-01T06:09:19.282Z,101092.69
2019-04-01T06:11:47.933Z,101095.69
2019-04-01T06:14:15.350Z,101103.21
2019-04-01T06:16:42.922Z,101097.25
2019-04-01T06:19:11.020Z,101104.77
2019-04-01T06:21:38.579Z,101106.88
2019-04-01T06:24:07.152Z,101096.99
2019-04-01T06:26:34.566Z,101100.56
2019-04-01T06:29:02.161Z,101104.55
2019-04-01T06:31:29.879Z,101099.99
2019-04-01T06:33:57.411Z,101108.16
2019-04-01T06:36:25.625Z,101103.75
2019-04-01T06:38:53.491Z,101111.78
2019-04-01T06:41:21.465Z,101109.40
2019-04-01T06:43:49.270Z,101108.06
2019-04-01T06:46:17.932Z,101099.33
2019-04-01T06:48:46.041Z,101097.44
2019-04-01T06:51:13.993Z,101091.44
2019-04-01T06:53:44.633Z,101094.84
2019-04-01T06:56:12.609Z,101087.13
2019-04-01T06:58:40.193Z,101086.89
2019-04-01T07:01:08.329Z,101087.56
2019-04-01T07:03:35.862Z,101091.13
2019-04-01T07:06:07.945Z,101084.52
2019-04-01T07:08:35.865Z,101087.94
2019-04-01T07:11:04.117Z,101086.83
2019-04-01T07:13:31.930Z,101081.16
2019-04-01T07:16:14.374Z,101080.20
2019-04-01T07:18:29.476Z,101077.95
2019-04-01T07:20:57.302Z,101079.80
2019-04-01T07:23:25.325Z,101076.20
2019-04-01T07:25:53.091Z,101079.92
2019-04-01T07:28:20.962Z,101071.12
2019-04-01T07:30:49.118Z,101065.75
2019-04-01T07:33:16.875Z,101071.53
2019-04-01T07:35:46.630Z,101074.53
2019-04-01T07:38:14.302Z,101066.41
2019-04-01T07:40:42.680Z,101068.10
2019-04-01T07:43:10.790Z,101061.93
2019-04-01T07:45:39.140Z,101065.69
2019-04-01T07:48:06.810Z,101068.70
2019-04-01T07:50:34.688Z,101062.95
2019-04-01T07:53:02.224Z,101066.20
2019-04-01T07:55:30.076Z,101059.86
2019-04-01T07:57:59.701Z,101063.97
2019-04-01T08:00:27.814Z,101060.67
2019-04-01T08:02:55.988Z,101059.37
2019-04-01T08:05:26.040Z,101050.55
2019-04-01T08:07:54.067Z,101049.97
2019-04-01T08:10:21.525Z,101045.38
2019-04-01T08:12:49.986Z,101048.05
2019-04-01T08:15:21.154Z,101046.13
2019-04-01T08:17:47.195Z,101052.12
2019-04-01T08:20:15.503Z,101043.68
2019-04-01T08:22:43.622Z,101045.90
2019-04-01T08:25:11.231Z,101048.78
2019-04-01T08:27:39.121Z,101041.36
2019-04-01T08:30:07.734Z,101044.25
2019-04-01T08:32:35.757Z,101051.17
2019-04-01T08:35:03.945Z,101047.16
2019-04-01T08:37:31.716Z,101046.50
2019-04-01T08:39:59.648Z,101042.42
2019-04-01T08:42:27.038Z,101048.75
2019-04-01T08:44:55.755Z,101043.32
2019-04-01T08:47:23.832Z,101042.23
2019-04-01T08:49:52.317Z,101036.16
2019-04-01T08:52:20.566Z,101027.46
2019-04-01T08:54:48.099Z,101029.11
2019-04-01T08:57:15.978Z,101029.45
2019-04-01T08:59:43.430Z,101027.19
2019-04-01T09:02:18.287Z,101022.59
2019-04-01T09:04:42.006Z,101021.08
2019-04-01T09:07:09.513Z,101011.82
2019-04-01T09:09:38.614Z,101013.06
2019-04-01T09:12:07.230Z,101013.37
2019-04-01T09:14:36.467Z,101013.28
2019-04-01T09:17:04.337Z,101008.48
2019-04-01T09:19:33.118Z,101006.45
2019-04-01T09:22:01.412Z,101005.00
2019-04-01T09:24:28.938Z,100997.12
2019-04-01T09:26:56.338Z,100997.73
2019-04-01T09:29:23.923Z,100994.28
2019-04-01T09:31:51.583Z,101000.08
2019-04-01T09:34:19.448Z,100994.33
2019-04-01T09:36:47.387Z,100989.66
2019-04-01T09:39:14.839Z,100989.74
2019-04-01T09:41:43.187Z,100981.76
2019-04-01T09:44:10.854Z,100974.59
2019-04-01T09:46:38.250Z,100968.84
2019-04-01T09:49:06.178Z,100968.34
2019-04-01T09:51:47.894Z,100975.56
2019-04-01T09:54:04.085Z,100962.70
2019-04-01T09:56:31.959Z,100960.20
2019-04-01T09:58:59.497Z,100952.63
2019-04-01T10:01:27.639Z,100945.09
2019-04-01T10:03:55.716Z,100949.28
2019-04-01T10:06:23.728Z,100948.06
2019-04-01T10:08:51.263Z,100939.31
2019-04-01T10:11:18.740Z,100940.89
2019-04-01T10:13:46.735Z,100939.74
2019-04-01T10:16:14.298Z,100934.99
2019-04-01T10:18:42.123Z,100937.22
2019-04-01T10:21:10.655Z,100929.20
2019-04-01T10:23:38.128Z,100924.71
2019-04-01T10:26:05.677Z,100924.63
2019-04-01T10:28:33.197Z,100922.13
2019-04-01T10:31:01.337Z,100913.65
2019-04-01T10:33:28.759Z,100908.81
2019-04-01T10:35:56.281Z,100903.94
2019-04-01T10:38:24.184Z,100902.56
2019-04-01T10:40:51.640Z,100900.94
2019-04-01T10:43:19.780Z,100900.20
2019-04-01T10:45:47.277Z,100898.28
2019-04-01T10:48:15.024Z,100896.37
2019-04-01T10:50:42.816Z,100895.84
2019-04-01T10:53:10.296Z,100890.92
2019-04-01T10:55:37.913Z,100882.05
2019-04-01T10:58:05.746Z,100878.17
2019-04-01T11:00:33.793Z,100876.82
2019-04-01T11:03:01.345Z,100872.37
2019-04-01T11:05:28.894Z,100867.22
2019-04-01T11:07:56.672Z,100861.63
2019-04-01T11:10:24.529Z,100854.55
2019-04-01T11:12:53.883Z,100853.44
2019-04-01T11:15:21.596Z,100844.21
2019-04-01T11:17:52.299Z,100846.06
2019-04-01T11:20:19.147Z,100842.07
2019-04-01T11:22:46.747Z,100844.87
2019-04-01T11:25:14.917Z,100840.44
2019-04-01T11:27:42.182Z,100841.50
2019-04-01T11:30:13.694Z,100840.65
2019-04-01T11:32:40.850Z,100830.36
2019-04-01T11:35:08.401Z,100821.39
2019-04-01T11:37:36.128Z,100817.20
2019-04-01T11:40:05.150Z,100813.75
2019-04-01T11:42:33.132Z,100818.09
2019-04-01T11:45:05.905Z,100815.79
2019-04-01T11:47:34.156Z,100807.52
2019-04-01T11:50:02.813Z,100801.71
2019-04-01T11:52:30.346Z,100801.00
2019-04-01T11:54:58.808Z,100789.89
2019-04-01T11:57:26.585Z,100792.19
2019-04-01T11:59:54.249Z,100787.30
2019-04-01T12:02:22.387Z,100781.06
2019-04-01T12:04:50.204Z,100773.47
2019-04-01T12:07:18.200Z,100766.22
2019-04-01T12:09:46.356Z,100771.06
2019-04-01T12:12:23.458Z,100777.30
2019-04-01T12:14:44.404Z,100762.42
2019-04-01T12:17:12.584Z,100760.28
2019-04-01T12:19:40.470Z,100759.61
2019-04-01T12:22:08.551Z,100751.36
2019-04-01T12:24:36.351Z,100751.95
2019-04-01T12:27:04.120Z,100744.69
2019-04-01T12:29:31.817Z,100743.38
2019-04-01T12:31:59.966Z,100739.00
2019-04-01T12:34:28.885Z,100734.67
2019-04-01T12:36:56.738Z,100733.13
2019-04-01T12:39:24.669Z,100729.34
2019-04-01T12:41:52.294Z,100719.87
2019-04-01T12:44:19.842Z,100722.14
2019-04-01T12:46:47.535Z,100712.56
2019-04-01T12:49:14.947Z,100710.47
2019-04-01T12:51:42.222Z,100711.74
2019-04-01T12:54:10.001Z,100716.97
2019-04-01T12:56:37.855Z,100711.10
2019-04-01T12:59:05.534Z,100707.89
2019-04-01T13:01:33.721Z,100697.77
2019-04-01T13:04:04.320Z,100691.74
2019-04-01T13:06:32.122Z,100690.53
2019-04-01T13:08:59.692Z,100694.04
2019-04-01T13:11:27.898Z,100680.87
2019-04-01T13:13:55.775Z,100678.67
2019-04-01T13:16:23.615Z,100674.23
2019-04-01T13:18:51.030Z,100671.52
2019-04-01T13:21:18.627Z,100663.43
2019-04-01T13:23:46.826Z,100658.27
2019-04-01T13:26:14.557Z,100659.71
2019-04-01T13:28:42.544Z,100656.97
2019-04-01T13:31:10.952Z,100654.45
2019-04-01T13:33:38.391Z,100654.53
2019-04-01T13:36:07.848Z,100654.36
2019-04-01T13:38:35.440Z,100647.28
2019-04-01T13:41:03.266Z,100641.88
2019-04-01T13:43:31.053Z,100637.30
2019-04-01T13:45:58.575Z,100635.66
2019-04-01T13:48:26.471Z,100628.71
2019-04-01T13:50:54.336Z,100625.33
2019-04-01T13:53:22.219Z,100621.91
2019-04-01T13:55:50.056Z,100612.83
2019-04-01T13:58:17.848Z,100616.95
2019-04-01T14:00:45.827Z,100611.09
2019-04-01T14:03:13.362Z,100611.28
2019-04-01T14:05:40.633Z,100605.44
2019-04-01T14:08:08.472Z,100596.89
2019-04-01T14:10:36.629Z,100594.70
2019-04-01T14:13:05.918Z,100597.30
2019-04-01T14:15:33.478Z,100581.33
2019-04-01T14:18:01.448Z,100580.73
2019-04-01T14:20:29.034Z,100582.20
2019-04-01T14:22:56.828Z,100582.00
2019-04-01T14:25:24.117Z,100580.88
2019-04-01T14:27:52.118Z,100572.86
2019-04-01T14:30:20.309Z,100570.55
2019-04-01T14:32:48.070Z,100568.74
2019-04-01T14:35:15.468Z,100570.70
2019-04-01T14:37:43.608Z,100569.00
2019-04-01T14:40:12.399Z,100563.05
2019-04-01T14:42:40.170Z,100559.91
2019-04-01T14:45:09.003Z,100554.52
2019-04-01T14:47:55.984Z,100550.23
2019-04-01T14:50:10.799Z,100552.31
2019-04-01T14:52:38.515Z,100550.75
2019-04-01T14:55:06.606Z,100550.75
2019-04-01T14:57:34.762Z,100545.87
2019-04-01T15:00:03.046Z,100543.53
2019-04-01T15:02:30.570Z,100540.19
2019-04-01T15:04:58.186Z,100537.59
2019-04-01T15:07:26.153Z,100534.09
2019-04-01T15:09:53.935Z,100528.65
2019-04-01T15:12:21.908Z,100519.87
2019-04-01T15:14:49.154Z,100527.89
2019-04-01T15:17:17.472Z,100523.37
2019-04-01T15:19:48.413Z,100523.56
2019-04-01T15:22:14.817Z,100520.47
2019-04-01T15:24:43.278Z,100511.64
2019-04-01T15:27:13.511Z,100516.73
2019-04-01T15:29:40.952Z,100510.00
2019-04-01T15:32:08.488Z,100504.19
2019-04-01T15:34:36.389Z,100496.12
2019-04-01T15:37:04.632Z,100500.04
2019-04-01T15:39:32.471Z,100495.77
2019-04-01T15:42:00.007Z,100494.94
2019-04-01T15:44:29.261Z,100487.80
2019-04-01T15:46:56.899Z,100485.13
2019-04-01T15:49:24.495Z,100487.91
2019-04-01T15:51:52.311Z,100490.70
2019-04-01T15:54:20.755Z,100489.03
2019-04-01T15:56:49.140Z,100475.73
2019-04-01T15:59:17.313Z,100478.63
2019-04-01T16:01:45.550Z,100471.09
2019-04-01T16:04:16.272Z,100475.81
2019-04-01T16:06:42.567Z,100471.40
2019-04-01T16:09:10.370Z,100461.73
2019-04-01T16:11:37.681Z,100467.13
2019-04-01T16:14:05.837Z,100468.55
2019-04-01T16:16:33.547Z,100464.00
2019-04-01T16:19:01.634Z,100458.04
2019-04-01T16:21:31.438Z,100462.23
2019-04-01T16:23:58.918Z,100457.55
2019-04-01T16:26:26.831Z,100451.09
2019-04-01T16:28:54.596Z,100450.60
2019-04-01T16:31:22.518Z,100453.11
2019-04-01T16:33:50.401Z,100448.77
2019-04-01T16:36:18.528Z,100448.84
2019-04-01T16:38:46.286Z,100449.16
2019-04-01T16:41:14.178Z,100452.79
2019-04-01T16:43:42.953Z,100447.48
2019-04-01T16:46:11.361Z,100453.67
2019-04-01T16:48:40.023Z,100449.34
2019-04-01T16:51:07.879Z,100451.27
2019-04-01T16:53:35.672Z,100448.23
2019-04-01T16:56:04.342Z,100447.48
2019-04-01T16:58:32.541Z,100444.40
2019-04-01T17:01:02.638Z,100436.71
2019-04-01T17:03:30.366Z,100438.87
2019-04-01T17:05:58.394Z,100443.95
2019-04-01T17:08:25.902Z,100445.41
2019-04-01T17:10:53.720Z,100440.74
2019-04-01T17:13:21.399Z,100440.22
2019-04-01T17:15:49.488Z,100440.20
2019-04-01T17:18:17.308Z,100440.82
2019-04-01T17:20:44.817Z,100444.45
2019-04-01T17:23:12.903Z,100433.15
2019-04-01T17:25:40.650Z,100438.22
2019-04-01T17:28:08.178Z,100437.31
2019-04-01T17:30:35.600Z,100440.13
2019-04-01T17:33:03.187Z,100438.45
2019-04-01T17:35:31.015Z,100438.23
2019-04-01T17:37:58.513Z,100439.06
2019-04-01T17:40:26.291Z,100436.56
2019-04-01T17:42:54.295Z,100436.87
2019-04-01T17:45:37.999Z,100435.54
2019-04-01T17:48:06.810Z,100439.11
2019-04-01T17:50:34.592Z,100434.42
2019-04-01T17:53:04.740Z,100439.41
2019-04-01T17:55:32.283Z,100436.08
2019-04-01T17:57:59.976Z,100434.10
2019-04-01T18:00:28.541Z,100437.14
2019-04-01T18:02:56.924Z,100434.34
2019-04-01T18:05:24.859Z,100439.84
2019-04-01T18:07:52.353Z,100435.39
2019-04-01T18:10:20.231Z,100436.72
2019-04-01T18:12:47.749Z,100435.59
2019-04-01T18:15:16.339Z,100438.54
2019-04-01T18:17:44.811Z,100437.09
2019-04-01T18:20:12.548Z,100438.12
2019-04-01T18:22:40.682Z,100435.67
2019-04-01T18:25:09.308Z,100441.19
2019-04-01T18:27:37.213Z,100447.16
2019-04-01T18:30:06.736Z,100445.84
2019-04-01T18:32:34.666Z,100448.16
2019-04-01T18:35:04.213Z,100446.12
2019-04-01T18:37:32.149Z,100443.70
2019-04-01T18:39:59.921Z,100453.55
2019-04-01T18:42:27.762Z,100454.92
2019-04-01T18:44:55.991Z,100460.28
2019-04-01T18:47:23.959Z,100456.84
2019-04-01T18:49:51.258Z,100461.24
2019-04-01T18:52:19.295Z,100466.74
2019-04-01T18:54:47.058Z,100464.75
2019-04-01T18:57:14.317Z,100469.62
2019-04-01T18:59:42.114Z,100468.74
2019-04-01T19:02:09.887Z,100468.66
2019-04-01T19:04:38.336Z,100471.12
2019-04-01T19:07:05.806Z,100478.09
2019-04-01T19:09:33.458Z,100471.69
2019-04-01T19:12:04.325Z,100473.45
2019-04-01T19:14:31.160Z,100478.63
2019-04-01T19:16:59.385Z,100471.41
2019-04-01T19:19:26.854Z,100481.56
2019-04-01T19:21:54.734Z,100480.59
2019-04-01T19:24:22.154Z,100484.78
2019-04-01T19:26:50.086Z,100486.09
2019-04-01T19:29:17.508Z,100489.52
2019-04-01T19:31:45.375Z,100485.30
2019-04-01T19:34:12.654Z,100488.86
2019-04-01T19:36:40.882Z,100484.72
2019-04-01T19:39:08.210Z,100487.75
2019-04-01T19:41:35.813Z,100491.24
2019-04-01T19:44:03.726Z,100487.48
2019-04-01T19:46:31.448Z,100489.77
2019-04-01T19:49:01.230Z,100487.03
2019-04-01T19:51:28.898Z,100490.69
2019-04-01T19:53:56.297Z,100499.27
2019-04-01T19:56:23.740Z,100487.46
2019-04-01T19:58:51.121Z,100490.84
2019-04-01T20:01:18.651Z,100490.34
2019-04-01T20:03:46.226Z,100482.95
2019-04-01T20:06:14.013Z,100489.13
2019-04-01T20:08:41.915Z,100479.80
2019-04-01T20:11:10.186Z,100483.86
2019-04-01T20:13:39.294Z,100489.34
2019-04-01T20:16:10.084Z,100486.52
2019-04-01T20:18:36.767Z,100486.54
2019-04-01T20:21:04.736Z,100486.41
2019-04-01T20:23:32.011Z,100479.83
2019-04-01T20:25:59.781Z,100481.47
2019-04-01T20:28:27.667Z,100477.45
2019-04-01T20:30:56.566Z,100477.81
2019-04-01T20:33:24.413Z,100479.23
2019-04-01T20:35:53.159Z,100476.20
2019-04-01T20:38:20.886Z,100473.05
2019-04-01T20:40:48.436Z,100472.34
2019-04-01T20:43:16.256Z,100473.47
2019-04-01T20:45:43.652Z,100471.80
2019-04-01T20:48:11.464Z,100475.79
2019-04-01T20:50:39.274Z,100468.83
2019-04-01T20:53:06.974Z,100470.10
2019-04-01T20:55:47.400Z,100468.52
2019-04-01T20:58:04.962Z,100470.76
2019-04-01T21:00:32.353Z,100472.66
2019-04-01T21:03:01.301Z,100464.39
2019-04-01T21:05:29.396Z,100463.52
2019-04-01T21:07:57.580Z,100463.63
2019-04-01T21:10:24.967Z,100459.53
2019-04-01T21:12:53.701Z,100459.25
2019-04-01T21:15:24.811Z,100452.88
2019-04-01T21:17:53.359Z,100455.02
2019-04-01T21:20:22.059Z,100450.92
2019-04-01T21:22:49.591Z,100449.48
2019-04-01T21:25:17.023Z,100451.56
2019-04-01T21:27:44.966Z,100447.36
2019-04-01T21:30:13.752Z,100445.52
2019-04-01T21:32:41.745Z,100443.42
2019-04-01T21:35:09.787Z,100444.35
2019-04-01T21:37:37.915Z,100447.86
2019-04-01T21:40:06.258Z,100448.94
2019-04-01T21:42:33.809Z,100442.55
2019-04-01T21:45:01.536Z,100443.13
2019-04-01T21:47:29.688Z,100440.23
2019-04-01T21:49:58.213Z,100436.73
2019-04-01T21:52:26.151Z,100434.20
2019-04-01T21:54:53.931Z,100432.05
2019-04-01T21:57:22.741Z,100423.27
2019-04-01T21:59:51.417Z,100422.44
2019-04-01T22:02:19.035Z,100425.20
2019-04-01T22:04:47.247Z,100429.80
2019-04-01T22:07:15.437Z,100426.55
2019-04-01T22:09:43.295Z,100424.51
2019-04-01T22:12:11.037Z,100421.72
2019-04-01T22:14:39.416Z,100417.84
2019-04-01T22:17:06.957Z,100418.82
2019-04-01T22:19:34.700Z,100423.44
2019-04-01T22:22:02.054Z,100417.86
2019-04-01T22:24:30.359Z,100413.24
2019-04-01T22:26:58.245Z,100420.14
2019-04-01T22:29:26.284Z,100410.82
2019-04-01T22:31:53.817Z,100406.50
2019-04-01T22:34:22.043Z,100406.50
2019-04-01T22:36:50.024Z,100398.40
2019-04-01T22:39:27.061Z,100402.95
2019-04-01T22:41:47.785Z,100400.89
2019-04-01T22:44:15.702Z,100402.20
2019-04-01T22:46:43.753Z,100394.25
2019-04-01T22:49:12.208Z,100397.28
2019-04-01T22:51:40.919Z,100395.30
2019-04-01T22:54:09.104Z,100393.25
2019-04-01T22:56:37.034Z,100397.34
2019-04-01T22:59:04.423Z,100390.83
2019-04-01T23:01:32.292Z,100395.98
2019-04-01T23:04:00.322Z,100392.64
2019-04-01T23:06:27.614Z,100389.93
2019-04-01T23:08:56.066Z,100389.98
2019-04-01T23:11:24.208Z,100385.89
2019-04-01T23:13:53.396Z,100384.89
2019-04-01T23:16:20.941Z,100379.00
2019-04-01T23:18:48.477Z,100376.95
2019-04-01T23:21:15.901Z,100375.56
2019-04-01T23:23:43.553Z,100371.34
2019-04-01T23:26:11.528Z,100371.94
2019-04-01T23:28:39.464Z,100367.16
2019-04-01T23:31:07.951Z,100365.80
2019-04-01T23:33:35.260Z,100359.75
2019-04-01T23:36:02.917Z,100360.23
2019-04-01T23:38:30.816Z,100360.36
2019-04-01T23:40:58.096Z,100361.59
2019-04-01T23:43:26.193Z,100353.56
2019-04-01T23:45:54.355Z,100350.94
2019-04-01T23:48:21.716Z,100350.53
2019-04-01T23:50:49.332Z,100346.91
2019-04-01T23:53:17.186Z,100346.91
2019-04-01T23:55:45.099Z,100347.88
2019-04-01T23:58:12.845Z,100345.97
